| time (UTC) | temp F | wind direction | speed knots | gust knots | rain 1hr in | rain 24hr in | rain mn in | humidity % | barometer mb |
| 20260506044552 | 46 | 236 | 0.0 | 0.0 | 0.00 | 0.00 | 0.00 | 77 | 1008.9 |
| 20260506043050 | 47 | 63 | 0.0 | 5.2 | 0.00 | 0.00 | 0.00 | 78 | 1008.8 |
| 20260506041602 | 47 | 234 | 0.0 | 5.2 | 0.00 | 0.00 | 0.00 | 78 | 1008.8 |
| 20260506040049 | 47 | 347 | 0.0 | 5.2 | 0.00 | 0.00 | 0.00 | 79 | 1008.9 |
| 20260506034548 | 47 | 56 | 0.0 | 5.2 | 0.00 | 0.00 | 0.00 | 79 | 1008.8 |
| 20260506033046 | 47 | 60 | 0.0 | 5.2 | 0.00 | 0.00 | 0.00 | 79 | 1008.8 |
| 20260506031547 | 48 | 112 | 0.0 | 5.2 | 0.00 | 0.00 | 0.00 | 79 | 1008.9 |
| 20260506030044 | 48 | 243 | 0.0 | 5.2 | 0.00 | 0.00 | 0.00 | 79 | 1008.9 |
| 20260506024542 | 48 | 73 | 0.0 | 5.2 | 0.00 | 0.00 | 0.00 | 78 | 1008.9 |
| 20260506023059 | 48 | 124 | 0.0 | 5.2 | 0.00 | 0.00 | 0.00 | 78 | 1008.9 |
| 20260506021603 | 48 | 117 | 0.0 | 5.2 | 0.00 | 0.00 | 0.00 | 77 | 1008.9 |
| 20260506020040 | 49 | 224 | 0.0 | 5.2 | 0.00 | 0.00 | 0.00 | 76 | 1008.9 |
| 20260506014538 | 49 | 72 | 0.0 | 5.2 | 0.00 | 0.00 | 0.00 | 75 | 1008.8 |
| 20260506013037 | 49 | 37 | 0.0 | 5.2 | 0.00 | 0.00 | 0.00 | 74 | 1008.9 |
| 20260506011537 | 49 | 158 | 0.0 | 5.2 | 0.00 | 0.00 | 0.00 | 74 | 1008.9 |
| 20260506010035 | 50 | 103 | 0.9 | 5.2 | 0.00 | 0.00 | 0.00 | 75 | 1009.1 |
| 20260506004534 | 50 | 84 | 0.0 | 0.0 | 0.00 | 0.00 | 0.00 | 77 | 1009.0 |
| 20260506003030 | 50 | 255 | 0.0 | 0.0 | 0.00 | 0.00 | 0.00 | 79 | 1009.0 |
| 20260506001530 | 50 | 79 | 0.0 | 0.0 | 0.00 | 0.00 | 0.00 | 79 | 1009.0 |
| 20260506000029 | 50 | 13 | 0.0 | 0.0 | 0.00 | 0.00 | 0.00 | 79 | 1008.8 |
| 20260505234528 | 50 | 82 | 0.0 | 0.0 | 0.00 | 0.00 | 0.00 | 79 | 1008.8 |
| 20260505233027 | 51 | 341 | 0.0 | 0.0 | 0.00 | 0.00 | 0.00 | 79 | 1008.7 |
| 20260505231541 | 51 | 89 | 0.0 | 0.0 | 0.00 | 0.00 | 0.00 | 78 | 1008.9 |
| 20260505230026 | 50 | 186 | 0.0 | 0.0 | 0.00 | 0.00 | 0.00 | 78 | 1009.0 |
| 20260505224522 | 50 | 257 | 0.0 | 0.0 | 0.00 | 0.00 | 0.00 | 78 | 1009.0 |
| 20260505223021 | 50 | 219 | 0.0 | 0.0 | 0.00 | 0.00 | 0.00 | 78 | 1009.0 |
| 20260505221522 | 50 | 207 | 0.0 | 0.0 | 0.00 | 0.00 | 0.00 | 77 | 1008.9 |
| 20260505220024 | 51 | 140 | 0.0 | 0.0 | 0.00 | 0.00 | 0.00 | 77 | 1008.9 |
| 20260505214522 | 51 | 331 | 0.0 | 0.0 | 0.00 | 0.00 | 0.00 | 77 | 1008.9 |
| 20260505213028 | 51 | 216 | 0.0 | 0.0 | 0.00 | 0.00 | 0.00 | 76 | 1008.8 |
| 20260505211520 | 51 | 260 | 0.0 | 0.0 | 0.00 | 0.00 | 0.00 | 76 | 1008.9 |
| 20260505210019 | 51 | 282 | 0.0 | 0.0 | 0.00 | 0.00 | 0.00 | 75 | 1008.9 |
| 20260505204518 | 51 | 245 | 0.0 | 0.0 | 0.00 | 0.00 | 0.00 | 75 | 1008.8 |
| 20260505203028 | 51 | 271 | 0.0 | 0.0 | 0.00 | 0.00 | 0.00 | 74 | 1008.8 |
| 20260505201529 | 52 | 129 | 0.0 | 2.6 | 0.00 | 0.00 | 0.00 | 74 | 1008.7 |
| 20260505200018 | 52 | 70 | 0.0 | 0.0 | 0.00 | 0.00 | 0.00 | 73 | 1008.7 |
| 20260505194517 | 52 | 110 | 0.0 | 2.6 | 0.00 | 0.00 | 0.00 | 73 | 1008.4 |
| 20260505193024 | 52 | 231 | 0.0 | 2.6 | 0.00 | 0.00 | 0.00 | 72 | 1008.2 |
| 20260505191517 | 53 | 260 | 0.0 | 2.6 | 0.00 | 0.00 | 0.00 | 73 | 1008.1 |
| 20260505190016 | 53 | 276 | 0.0 | 2.6 | 0.00 | 0.00 | 0.00 | 73 | 1008.0 |
| 20260505184515 | 53 | 319 | 0.0 | 6.1 | 0.00 | 0.00 | 0.00 | 72 | 1008.1 |
| 20260505183020 | 54 | 70 | 0.9 | 4.3 | 0.00 | 0.00 | 0.00 | 70 | 1008.1 |
| 20260505181514 | 54 | 78 | 0.9 | 3.5 | 0.00 | 0.00 | 0.00 | 68 | 1008.0 |
| 20260505180018 | 55 | 82 | 0.0 | 5.2 | 0.00 | 0.00 | 0.00 | 68 | 1008.1 |
| 20260505174517 | 55 | 60 | 0.0 | 5.2 | 0.00 | 0.00 | 0.00 | 67 | 1008.1 |
| 20260505173014 | 55 | 271 | 0.0 | 3.5 | 0.00 | 0.00 | 0.00 | 65 | 1008.3 |
| 20260505171513 | 56 | 41 | 0.9 | 7.0 | 0.00 | 0.00 | 0.00 | 65 | 1008.2 |
| 20260505170114 | 56 | 3 | 0.9 | 7.0 | 0.00 | 0.00 | 0.00 | 64 | 1008.2 |
| 20260505164511 | 57 | 41 | 0.9 | 6.1 | 0.00 | 0.00 | 0.00 | 64 | 1008.1 |
| 20260505163013 | 57 | 60 | 0.9 | 6.1 | 0.00 | 0.00 | 0.00 | 61 | 1008.1 |
| 20260505161510 | 57 | 60 | 1.7 | 7.8 | 0.00 | 0.00 | 0.00 | 62 | 1008.1 |
| 20260505153006 | 57 | 210 | 1.7 | 7.0 | 0.00 | 0.00 | 0.00 | 62 | 1008.4 |
| 20260505151504 | 57 | 103 | 0.9 | 4.3 | 0.00 | 0.00 | 0.00 | 62 | 1008.5 |
| 20260505130106 | 57 | 88 | 2.6 | 7.0 | 0.00 | 0.00 | 0.00 | 62 | 1008.7 |
| 20260505124558 | 57 | 101 | 2.6 | 12.2 | 0.00 | 0.00 | 0.00 | 61 | 1008.8 |
| 20260505123059 | 58 | 345 | 2.6 | 10.4 | 0.00 | 0.00 | 0.00 | 59 | 1008.7 |
| 20260505121625 | 57 | 342 | 2.6 | 11.3 | 0.00 | 0.00 | 0.00 | 60 | 1008.8 |
| 20260505120056 | 59 | 275 | 1.7 | 7.0 | 0.00 | 0.00 | 0.00 | 58 | 1008.6 |
| 20260505114554 | 58 | 25 | 0.9 | 7.0 | 0.00 | 0.00 | 0.00 | 59 | 1008.8 |
| 20260505113053 | 59 | 114 | 1.7 | 8.7 | 0.00 | 0.00 | 0.00 | 58 | 1008.8 |
| 20260505111551 | 57 | 295 | 1.7 | 8.7 | 0.00 | 0.00 | 0.00 | 59 | 1008.7 |
| 20260505101553 | 58 | 50 | 2.6 | 8.7 | 0.00 | 0.00 | 0.00 | 61 | 1009.1 |
| 20260505100042 | 58 | 79 | 0.9 | 5.2 | 0.00 | 0.00 | 0.00 | 62 | 1009.1 |
| 20260505094539 | 56 | 51 | 4.3 | 8.7 | 0.00 | 0.00 | 0.00 | 64 | 1009.1 |
| 20260505093042 | 57 | 96 | 0.9 | 7.0 | 0.00 | 0.00 | 0.00 | 64 | 1009.1 |
| 20260505091540 | 56 | 4 | 0.9 | 4.3 | 0.00 | 0.00 | 0.00 | 65 | 1009.2 |
| 20260505090048 | 54 | 64 | 2.6 | 8.7 | 0.00 | 0.00 | 0.00 | 68 | 1009.2 |
| 20260505084528 | 54 | 130 | 2.6 | 5.2 | 0.00 | 0.00 | 0.00 | 68 | 1009.3 |
| 20260505083028 | 53 | 61 | 1.7 | 6.1 | 0.00 | 0.00 | 0.00 | 69 | 1009.3 |
| 20260505081529 | 0 | 0.0 | 0.0 | 0.00 | 0.00 | 0.00 | 1009.6 | ||
| 20260505080022 | 0 | 0.0 | 0.0 | 0.00 | 0.00 | 0.00 | 1009.6 | ||
| 20260505074514 | 51 | 131 | 0.9 | 6.1 | 0.00 | 0.01 | 0.00 | 79 | 1009.6 |
| 20260505073010 | 50 | 32 | 1.7 | 6.1 | 0.00 | 0.01 | 0.00 | 83 | 1009.6 |
| 20260505071506 | 49 | 99 | 0.0 | 0.0 | 0.00 | 0.01 | 0.00 | 89 | 1009.7 |
| 20260505070006 | 48 | 51 | 0.0 | 0.0 | 0.00 | 0.02 | 0.00 | 90 | 1009.7 |
| 20260505064506 | 47 | 253 | 0.0 | 0.0 | 0.00 | 0.02 | 0.00 | 92 | 1009.8 |
| 20260505063002 | 47 | 340 | 0.0 | 0.0 | 0.00 | 0.02 | 0.00 | 93 | 1009.7 |
| 20260505061502 | 47 | 128 | 0.0 | 0.0 | 0.00 | 0.02 | 0.00 | 93 | 1009.8 |
| 20260505060005 | 47 | 127 | 0.0 | 0.0 | 0.00 | 0.02 | 0.00 | 93 | 1009.8 |
| 20260505054601 | 47 | 127 | 0.0 | 0.0 | 0.00 | 0.02 | 0.00 | 93 | 1009.8 |
| 20260505053108 | 47 | 127 | 0.0 | 0.0 | 0.00 | 0.02 | 0.00 | 93 | 1009.7 |
| 20260505051559 | 47 | 127 | 0.0 | 0.0 | 0.00 | 0.02 | 0.00 | 93 | 1009.7 |